Home > Products > Valid Products > MTR

000
SAUS46 KPQR 310853
MTRREO
METAR KREO 310852Z AUTO 05003KT 11/M01 A3010 RMK AO1 SLP164
T01061006 53010





000
SAUS46 KPQR 310753
MTRREO
METAR KREO 310752Z AUTO 05006KT 12/00 A3008 RMK AO1 SLP159 T01220000
402780122





000
SAUS46 KPQR 310753
MTRREO
METAR KREO 310752Z AUTO 05006KT 12/00 A3008 RMK AO1 SLP159 T01220000
402780122





000
SAUS46 KPQR 310653
MTRREO
METAR KREO 310652Z AUTO 02005KT 13/01 A3008 RMK AO1 SLP158 T01330006





000
SAUS46 KPQR 310653
MTRREO
METAR KREO 310652Z AUTO 02005KT 13/01 A3008 RMK AO1 SLP158 T01330006





000
SAUS46 KPQR 310553
MTRREO
METAR KREO 310552Z AUTO 04006KT 16/01 A3006 RMK AO1 SLP149 T01560011
10278 20150 51018





000
SAUS46 KPQR 310553
MTRREO
METAR KREO 310552Z AUTO 04006KT 16/01 A3006 RMK AO1 SLP149 T01560011
10278 20150 51018





000
SAUS46 KPQR 310453
MTRREO
METAR KREO 310452Z AUTO 02004KT 17/01 A3006 RMK AO1 SLP148 T01720006





000
SAUS46 KPQR 310453
MTRREO
METAR KREO 310452Z AUTO 02004KT 17/01 A3006 RMK AO1 SLP148 T01720006





000
SAUS46 KPQR 310353
MTRREO
METAR KREO 310352Z AUTO 35009KT 20/01 A3004 RMK AO1 SLP139 T02000006





000
SAUS46 KPQR 310253
MTRREO
METAR KREO 310252Z AUTO 33004KT 21/M03 A3000 RMK AO1 SLP128
T02111028 53006





000
SAUS46 KPQR 310253
MTRREO
METAR KREO 310252Z AUTO 33004KT 21/M03 A3000 RMK AO1 SLP128
T02111028 53006





000
SAUS46 KPQR 310153
MTRREO
METAR KREO 310152Z AUTO 26011G19KT 25/M05 A2999 RMK AO1 SLP121
T02501050





000
SAUS46 KPQR 310053
MTRREO
METAR KREO 310052Z AUTO 26010KT 27/M05 A2998 RMK AO1 SLP119
T02671050





000
SAUS46 KPQR 310053
MTRREO
METAR KREO 310052Z AUTO 26010KT 27/M05 A2998 RMK AO1 SLP119
T02671050





000
SAUS46 KPQR 302353
MTRREO
METAR KREO 302352Z AUTO 23009G23KT 27/M07 A2998 RMK AO1 SLP118
T02721067 10278 20211 56010





000
SAUS46 KPQR 302253
MTRREO
METAR KREO 302252Z AUTO 23014G23KT 27/M05 A3000 RMK AO1 PK WND
24027/2227 SLP120 T02671050





000
SAUS46 KPQR 302153
MTRREO
METAR KREO 302152Z AUTO 25016G21KT 27/M04 A3000 RMK AO1 SLP123
T02671044





000
SAUS46 KPQR 302153
MTRREO
METAR KREO 302152Z AUTO 25016G21KT 27/M04 A3000 RMK AO1 SLP123
T02671044





000
SAUS46 KPQR 302053
MTRREO
METAR KREO 302052Z AUTO 23018G27KT 26/M03 A3002 RMK AO1 PK WND
23027/2051 SLP127 T02561028 58009





000
SAUS46 KPQR 302053
MTRREO
METAR KREO 302052Z AUTO 23018G27KT 26/M03 A3002 RMK AO1 PK WND
23027/2051 SLP127 T02561028 58009





000
SAUS46 KPQR 301953
MTRREO
METAR KREO 301952Z AUTO 24012G21KT 23/M04 A3004 RMK AO1 SLP135
T02281044





000
SAUS46 KPQR 301953
MTRREO
METAR KREO 301952Z AUTO 24012G21KT 23/M04 A3004 RMK AO1 SLP135
T02281044





000
SAUS46 KPQR 301853
MTRREO
METAR KREO 301852Z AUTO 23015KT 22/M03 A3004 RMK AO1 SLP137
T02221033





000
SAUS46 KPQR 301753
MTRREO
METAR KREO 301752Z AUTO 25015G21KT 23/M02 A3005 RMK AO1 SLP137
T02281017 10228 20122 51005





000
SAUS46 KPQR 301753
MTRREO
METAR KREO 301752Z AUTO 25015G21KT 23/M02 A3005 RMK AO1 SLP137
T02281017 10228 20122 51005





000
SAUS46 KPQR 301653
MTRREO
METAR KREO 301652Z AUTO 22015G20KT 21/01 A3004 RMK AO1 SLP135
T02110006





000
SAUS46 KPQR 301553
MTRREO
METAR KREO 301552Z AUTO 24013KT 20/00 A3004 RMK AO1 SLP134 T02000000





000
SAUS46 KPQR 301453
MTRREO
METAR KREO 301452Z AUTO 19012KT 17/00 A3003 RMK AO1 SLP132 T01720000
51008





000
SAUS46 KPQR 301353
MTRREO
METAR KREO 301352Z AUTO 20010KT 14/03 A3003 RMK AO1 SLP131 T01440033





000
SAUS46 KPQR 301353
MTRREO
METAR KREO 301352Z AUTO 20010KT 14/03 A3003 RMK AO1 SLP131 T01440033





000
SAUS46 KPQR 301258
MTRREO
METAR KREO 301252Z AUTO 19009KT 13/02 A3001 RMK AO1 SLP123 T01280022





000
SAUS46 KPQR 301153
MTRREO
METAR KREO 301152Z AUTO 15007KT 14/02 A3000 RMK AO1 SLP119 T01390022
10217 20139 51008





000
SAUS46 KPQR 301153
MTRREO
METAR KREO 301152Z AUTO 15007KT 14/02 A3000 RMK AO1 SLP119 T01390022
10217 20139 51008





000
SAUS46 KPQR 301053
MTRREO
METAR KREO 301052Z AUTO 20013KT 17/02 A2999 RMK AO1 SLP112 T01670022





000
SAUS46 KPQR 300953
MTRREO
METAR KREO 300952Z AUTO 19010KT 16/01 A2999 RMK AO1 SLP112 T01560011





000
SAUS46 KPQR 300853
MTRREO
METAR KREO 300852Z AUTO 20014KT 18/01 A2998 RMK AO1 SLP105 T01780011
50014





000
SAUS46 KPQR 300853
MTRREO
METAR KREO 300852Z AUTO 20014KT 18/01 A2998 RMK AO1 SLP105 T01780011
50014





000
SAUS46 KPQR 300753
MTRREO
METAR KREO 300752Z AUTO 21010KT 19/01 A2998 RMK AO1 SLP108 T01890006
403220189





000
SAUS46 KPQR 300653
MTRREO
METAR KREO 300652Z AUTO 22013KT 21/M01 A2995 RMK AO1 SLP095
T02111011





000
SAUS46 KPQR 300553
MTRREO
METAR KREO 300552Z AUTO 21006KT 21/01 A2993 RMK AO1 SLP089 T02110006
10317 20211 51021





000
SAUS46 KPQR 300553
MTRREO
METAR KREO 300552Z AUTO 21006KT 21/01 A2993 RMK AO1 SLP089 T02110006
10317 20211 51021





000
SAUS46 KPQR 300453
MTRREO
METAR KREO 300452Z AUTO 20006KT 23/M02 A2991 RMK AO1 SLP081
T02281017





000
SAUS46 KPQR 300353
MTRREO
METAR KREO 300352Z AUTO 23012KT 24/02 A2990 RMK AO1 PK WND
24031/0301 SLP076 T02440022





000
SAUS46 KPQR 300253
MTRREO
METAR KREO 300252Z AUTO 23023G30KT 26/04 A2986 RMK AO1 PK WND
23035/0159 SLP064 T02610039 55004





000
SAUS46 KPQR 300153
MTRREO
METAR KREO 300152Z AUTO 23018G27KT 28/03 A2986 RMK AO1 PK WND
19030/0056 SLP061 T02830028





000
SAUS46 KPQR 300053
MTRREO
METAR KREO 300052Z AUTO 20020G30KT 30/01 A2986 RMK AO1 PK WND
22033/0005 SLP060 T03000011





000
SAUS46 KPQR 292353
MTRREO
METAR KREO 292352Z AUTO 19016G23KT 32/03 A2987 RMK AO1 PK WND
22030/2326 SLP065 T03170033 10322 20283 58010





000
SAUS46 KPQR 292353
MTRREO
METAR KREO 292352Z AUTO 19016G23KT 32/03 A2987 RMK AO1 PK WND
22030/2326 SLP065 T03170033 10322 20283 58010





000
SAUS46 KPQR 292253
MTRREO
METAR KREO 292252Z AUTO 21017G23KT 32/04 A2989 RMK AO1 PK WND
21039/2211 SLP072 T03170039





000
SAUS46 KPQR 292153
MTRREO
METAR KREO 292152Z AUTO 20021G26KT 32/04 A2990 RMK AO1 PK WND
22032/2133 SLP074 T03220039





000
SAUS46 KPQR 292053
MTRREO
METAR KREO 292052Z AUTO 19016G31KT 32/03 A2991 RMK AO1 PK WND
22037/2003 SLP078 T03170028 55002





000
SAUS46 KPQR 292053
MTRREO
METAR KREO 292052Z AUTO 19016G31KT 32/03 A2991 RMK AO1 PK WND
22037/2003 SLP078 T03170028 55002





000
SAUS46 KPQR 291953
MTRREO
METAR KREO 291952Z AUTO 22025G32KT 30/03 A2991 RMK AO1 PK WND
19040/1854 SLP077 T03000028





000
SAUS46 KPQR 291953
MTRREO
METAR KREO 291952Z AUTO 22025G32KT 30/03 A2991 RMK AO1 PK WND
19040/1854 SLP077 T03000028





000
SAUS46 KPQR 291853
MTRREO
METAR KREO 291852Z AUTO 21028G35KT 31/01 A2990 RMK AO1 PK WND
22035/1852 SLP073 T03110011





000
SAUS46 KPQR 291853
MTRREO
METAR KREO 291852Z AUTO 21028G35KT 31/01 A2990 RMK AO1 PK WND
22035/1852 SLP073 T03110011





000
SAUS46 KPQR 291753
MTRREO
METAR KREO 291752Z AUTO 21021G31KT 28/02 A2991 RMK AO1 PK WND
21031/1743 SLP079 T02830022 10300 20239 58002





000
SAUS46 KPQR 291653
MTRREO
METAR KREO 291652Z AUTO 20017G26KT 27/03 A2992 RMK AO1 PK WND
21026/1652 SLP083 T02720028





000
SAUS46 KPQR 291553
MTRREO
METAR KREO 291552Z AUTO 15010G17KT 28/03 A2992 RMK AO1 SLP082
T02780028





000
SAUS46 KPQR 291454
MTRREO
METAR KREO 291452Z AUTO 13011G14KT 24/02 A2992 RMK AO1 SLP085
T02440022 53009





000
SAUS46 KPQR 291454
MTRREO
METAR KREO 291452Z AUTO 13011G14KT 24/02 A2992 RMK AO1 SLP085
T02440022 53009





000
SAUS46 KPQR 291353
MTRREO
METAR KREO 291352Z AUTO 15010G18KT 25/01 A2990 RMK AO1 SLP075
T02500011





000
SAUS46 KPQR 291353
MTRREO
METAR KREO 291352Z AUTO 15010G18KT 25/01 A2990 RMK AO1 SLP075
T02500011





000
SAUS46 KPQR 291258
MTRREO
METAR KREO 291252Z AUTO 16012KT 24/01 A2989 RMK AO1 SLP067 T02440006





000
SAUS46 KPQR 291258
MTRREO
METAR KREO 291252Z AUTO 16012KT 24/01 A2989 RMK AO1 SLP067 T02440006





000
SAUS46 KPQR 291153
MTRREO
METAR KREO 291152Z AUTO 18008KT 24/01 A2989 RMK AO1 SLP068 T02390006
10256 20194 58006





000
SAUS46 KPQR 291054
MTRREO
METAR KREO 291052Z AUTO 16007KT 21/00 A2990 RMK AO1 SLP075 T02110000





000
SAUS46 KPQR 290953
MTRREO
METAR KREO 290952Z AUTO 15008KT 22/00 A2991 RMK AO1 SLP076 T02170000





000
SAUS46 KPQR 290953
MTRREO
METAR KREO 290952Z AUTO 15008KT 22/00 A2991 RMK AO1 SLP076 T02170000





000
SAUS46 KPQR 290853
MTRREO
METAR KREO 290852Z AUTO 14008KT 22/00 A2991 RMK AO1 SLP077 T02170000
56001





000
SAUS46 KPQR 290853
MTRREO
METAR KREO 290852Z AUTO 14008KT 22/00 A2991 RMK AO1 SLP077 T02170000
56001





000
SAUS46 KPQR 290753
MTRREO
METAR KREO 290752Z AUTO 14011KT 24/00 A2991 RMK AO1 SLP078 T02390000
403390139





000
SAUS46 KPQR 290753
MTRREO
METAR KREO 290752Z AUTO 14011KT 24/00 A2991 RMK AO1 SLP078 T02390000
403390139





000
SAUS46 KPQR 290653
MTRREO
METAR KREO 290652Z AUTO 14010KT 24/00 A2990 RMK AO1 SLP075 T02390000





000
SAUS46 KPQR 290653
MTRREO
METAR KREO 290652Z AUTO 14010KT 24/00 A2990 RMK AO1 SLP075 T02390000





000
SAUS46 KPQR 290553
MTRREO
METAR KREO 290552Z AUTO 13010KT 26/00 A2992 RMK AO1 SLP079 T02560000
10322 20250 58005





000
SAUS46 KPQR 290553
MTRREO
METAR KREO 290552Z AUTO 13010KT 26/00 A2992 RMK AO1 SLP079 T02560000
10322 20250 58005





000
SAUS46 KPQR 290453
MTRREO
METAR KREO 290452Z AUTO 13008KT 26/00 A2993 RMK AO1 SLP083 T02610000





000
SAUS46 KPQR 290353
MTRREO
METAR KREO 290352Z AUTO 15007KT 26/M01 A2994 RMK AO1 SLP089
T02561006





000
SAUS46 KPQR 290253
MTRREO
METAR KREO 290252Z AUTO 18007KT 27/M02 A2993 RMK AO1 SLP090
T02671017 56014





000
SAUS46 KPQR 290253
MTRREO
METAR KREO 290252Z AUTO 18007KT 27/M02 A2993 RMK AO1 SLP090
T02671017 56014





000
SAUS46 KPQR 290153
MTRREO
METAR KREO 290152Z AUTO 19006KT 30/M01 A2994 RMK AO1 SLP094
T03001011





000
SAUS46 KPQR 290153
MTRREO
METAR KREO 290152Z AUTO 19006KT 30/M01 A2994 RMK AO1 SLP094
T03001011





000
SAUS46 KPQR 290053
MTRREO
METAR KREO 290052Z AUTO 18012KT 32/M01 A2996 RMK AO1 SLP105
T03171006





000
SAUS46 KPQR 290053
MTRREO
METAR KREO 290052Z AUTO 18012KT 32/M01 A2996 RMK AO1 SLP105
T03171006





000
SAUS46 KPQR 282353
MTRREO
METAR KREO 282352Z AUTO 18012KT 32/00 A2998 RMK AO1 SLP106 T03220000
10339 20300 56014





000
SAUS46 KPQR 282353
MTRREO
METAR KREO 282352Z AUTO 18012KT 32/00 A2998 RMK AO1 SLP106 T03220000
10339 20300 56014





000
SAUS46 KPQR 282253
MTRREO
METAR KREO 282252Z AUTO 25005KT 33/00 A2998 RMK AO1 SLP108 T03280000





000
SAUS46 KPQR 282153
MTRREO
METAR KREO 282152Z AUTO VRB04KT 33/00 A3000 RMK AO1 SLP113 T03330000





000
SAUS46 KPQR 282053
MTRREO
METAR KREO 282052Z AUTO VRB06G15KT 33/01 A3003 RMK AO1 SLP119
T03330006 58018





000
SAUS46 KPQR 281953
MTRREO
METAR KREO 281952Z AUTO 31/01 A3005 RMK AO1 SLP129 T03110006





000
SAUS46 KPQR 281953
MTRREO
METAR KREO 281952Z AUTO 31/01 A3005 RMK AO1 SLP129 T03110006





000
SAUS46 KPQR 281853
MTRREO
METAR KREO 281852Z AUTO 25009KT 32/01 A3007 RMK AO1 SLP138 T03170006





000
SAUS46 KPQR 281853
MTRREO
METAR KREO 281852Z AUTO 25009KT 32/01 A3007 RMK AO1 SLP138 T03170006





000
SAUS46 KPQR 281753
MTRREO
METAR KREO 281752Z AUTO 00000KT 30/01 A3009 RMK AO1 SLP139 T03000011
10300 20139 58005





000
SAUS46 KPQR 281653
MTRREO
METAR KREO 281652Z AUTO VRB05KT 29/02 A3010 RMK AO1 SLP148 T02890022





000
SAUS46 KPQR 281553
MTRREO
METAR KREO 281552Z AUTO 19007KT 26/02 A3011 RMK AO1 SLP148 T02610022





000
SAUS46 KPQR 281453
MTRREO
METAR KREO 281452Z AUTO 16004KT 23/00 A3010 RMK AO1 SLP148 T02330000
52003





000
SAUS46 KPQR 281453
MTRREO
METAR KREO 281452Z AUTO 16004KT 23/00 A3010 RMK AO1 SLP148 T02330000
52003





000
SAUS46 KPQR 281353
MTRREO
METAR KREO 281352Z AUTO 14006KT 18/00 A3010 RMK AO1 SLP150 T01830000





000
SAUS46 KPQR 281258
MTRREO
METAR KREO 281252Z AUTO 16008KT 14/M01 A3010 RMK AO1 SLP152
T01441006





000
SAUS46 KPQR 281258
MTRREO
METAR KREO 281252Z AUTO 16008KT 14/M01 A3010 RMK AO1 SLP152
T01441006





000
SAUS46 KPQR 281153
MTRREO
METAR KREO 281152Z AUTO 00000KT 17/01 A3009 RMK AO1 SLP144 T01720011
10244 20156 50000





000
SAUS46 KPQR 281153
MTRREO
METAR KREO 281152Z AUTO 00000KT 17/01 A3009 RMK AO1 SLP144 T01720011
10244 20156 50000





000
SAUS46 KPQR 281054
MTRREO
METAR KREO 281052Z AUTO 16007KT 17/00 A3010 RMK AO1 SLP147 T01720000





000
SAUS46 KPQR 280953
MTRREO
METAR KREO 280952Z AUTO 17007KT 19/M01 A3009 RMK AO1 SLP144
T01891011





    US Dept of Commerce
    National Oceanic and Atmospheric Administration
    National Weather Service
    1325 East West Highway
    Silver Spring, MD 20910
    Page Author: NWS Internet Services Team
Disclaimer
Information Quality
Credits
Glossary
Privacy Policy
Freedom of Information Act (FOIA)
About Us
Career Opportunities